sensor_id;sensor_type;location;lat;lon;timestamp;temperature;humidity
34815;DHT22;21030;53.912;15.214;2022-07-04T00:01:37;37.20;28.50
34815;DHT22;21030;53.912;15.214;2022-07-04T00:04:04;38.20;28.50
34815;DHT22;21030;53.912;15.214;2022-07-04T00:06:31;39.00;27.60
34815;DHT22;21030;53.912;15.214;2022-07-04T00:08:58;39.90;27.10
34815;DHT22;21030;53.912;15.214;2022-07-04T00:11:25;40.50;26.50
34815;DHT22;21030;53.912;15.214;2022-07-04T00:13:52;40.80;26.10
34815;DHT22;21030;53.912;15.214;2022-07-04T00:16:19;40.80;26.00
34815;DHT22;21030;53.912;15.214;2022-07-04T00:18:46;40.60;26.10
34815;DHT22;21030;53.912;15.214;2022-07-04T00:21:13;41.10;25.80
34815;DHT22;21030;53.912;15.214;2022-07-04T00:23:40;41.50;25.40
34815;DHT22;21030;53.912;15.214;2022-07-04T00:26:08;41.90;25.20
34815;DHT22;21030;53.912;15.214;2022-07-04T00:28:35;42.10;25.00
34815;DHT22;21030;53.912;15.214;2022-07-04T00:31:02;42.30;24.80
34815;DHT22;21030;53.912;15.214;2022-07-04T00:33:29;42.40;24.80
34815;DHT22;21030;53.912;15.214;2022-07-04T00:35:56;42.50;24.80
34815;DHT22;21030;53.912;15.214;2022-07-04T00:38:23;42.60;24.70
34815;DHT22;21030;53.912;15.214;2022-07-04T00:40:50;42.60;24.70
34815;DHT22;21030;53.912;15.214;2022-07-04T00:43:22;42.60;24.80
34815;DHT22;21030;53.912;15.214;2022-07-04T00:45:52;42.60;24.60
34815;DHT22;21030;53.912;15.214;2022-07-04T00:48:20;42.60;24.70
34815;DHT22;21030;53.912;15.214;2022-07-04T00:50:48;42.60;24.70
34815;DHT22;21030;53.912;15.214;2022-07-04T00:53:18;42.70;25.00
34815;DHT22;21030;53.912;15.214;2022-07-04T00:55:46;42.30;25.20
34815;DHT22;21030;53.912;15.214;2022-07-04T00:58:13;42.10;26.60
34815;DHT22;21030;53.912;15.214;2022-07-04T01:00:41;42.30;26.90
34815;DHT22;21030;53.912;15.214;2022-07-04T01:03:08;42.10;26.80
34815;DHT22;21030;53.912;15.214;2022-07-04T01:05:36;41.00;27.60
34815;DHT22;21030;53.912;15.214;2022-07-04T01:08:05;41.40;27.70
34815;DHT22;21030;53.912;15.214;2022-07-04T01:10:32;41.70;27.40
34815;DHT22;21030;53.912;15.214;2022-07-04T01:12:59;41.90;28.00
34815;DHT22;21030;53.912;15.214;2022-07-04T01:15:26;41.90;27.50
34815;DHT22;21030;53.912;15.214;2022-07-04T01:17:53;42.00;27.40
34815;DHT22;21030;53.912;15.214;2022-07-04T01:20:20;42.10;27.60
34815;DHT22;21030;53.912;15.214;2022-07-04T01:22:49;41.90;28.00
34815;DHT22;21030;53.912;15.214;2022-07-04T01:25:16;41.80;28.60
34815;DHT22;21030;53.912;15.214;2022-07-04T01:27:45;41.70;27.90
34815;DHT22;21030;53.912;15.214;2022-07-04T01:30:12;41.50;28.30
34815;DHT22;21030;53.912;15.214;2022-07-04T01:32:39;41.60;27.90
34815;DHT22;21030;53.912;15.214;2022-07-04T01:35:08;41.70;28.00
34815;DHT22;21030;53.912;15.214;2022-07-04T01:37:37;41.70;27.50
34815;DHT22;21030;53.912;15.214;2022-07-04T01:40:04;41.20;27.80
34815;DHT22;21030;53.912;15.214;2022-07-04T01:42:31;40.70;28.30
34815;DHT22;21030;53.912;15.214;2022-07-04T01:44:59;40.50;29.10
34815;DHT22;21030;53.912;15.214;2022-07-04T01:47:26;39.20;29.80
34815;DHT22;21030;53.912;15.214;2022-07-04T01:49:53;38.70;31.30
34815;DHT22;21030;53.912;15.214;2022-07-04T01:52:20;37.90;32.40
34815;DHT22;21030;53.912;15.214;2022-07-04T01:54:47;37.70;33.00
34815;DHT22;21030;53.912;15.214;2022-07-04T01:57:14;36.80;33.70
34815;DHT22;21030;53.912;15.214;2022-07-04T01:59:41;36.50;34.70
34815;DHT22;21030;53.912;15.214;2022-07-04T02:02:27;37.00;35.20
34815;DHT22;21030;53.912;15.214;2022-07-04T02:04:55;38.20;35.20
34815;DHT22;21030;53.912;15.214;2022-07-04T02:07:22;38.90;33.70
34815;DHT22;21030;53.912;15.214;2022-07-04T02:09:49;39.50;32.50
34815;DHT22;21030;53.912;15.214;2022-07-04T02:12:16;40.00;31.60
34815;DHT22;21030;53.912;15.214;2022-07-04T02:15:02;40.10;31.30
34815;DHT22;21030;53.912;15.214;2022-07-04T02:17:29;40.20;30.80
34815;DHT22;21030;53.912;15.214;2022-07-04T02:19:56;40.00;30.90
34815;DHT22;21030;53.912;15.214;2022-07-04T02:22:23;40.10;30.90
34815;DHT22;21030;53.912;15.214;2022-07-04T02:24:51;40.20;30.60
34815;DHT22;21030;53.912;15.214;2022-07-04T02:27:18;40.10;30.60
34815;DHT22;21030;53.912;15.214;2022-07-04T02:29:45;40.10;30.80
34815;DHT22;21030;53.912;15.214;2022-07-04T02:32:13;40.10;30.70
34815;DHT22;21030;53.912;15.214;2022-07-04T02:34:40;40.00;30.40
34815;DHT22;21030;53.912;15.214;2022-07-04T02:37:08;39.90;30.60
34815;DHT22;21030;53.912;15.214;2022-07-04T02:39:36;39.80;30.70
34815;DHT22;21030;53.912;15.214;2022-07-04T02:42:03;39.70;30.80
34815;DHT22;21030;53.912;15.214;2022-07-04T02:44:30;39.80;31.00
34815;DHT22;21030;53.912;15.214;2022-07-04T02:46:57;40.20;30.90
34815;DHT22;21030;53.912;15.214;2022-07-04T02:49:25;40.40;30.40
34815;DHT22;21030;53.912;15.214;2022-07-04T02:51:52;40.10;30.20
34815;DHT22;21030;53.912;15.214;2022-07-04T02:54:20;39.60;31.00
34815;DHT22;21030;53.912;15.214;2022-07-04T02:56:48;40.10;30.60
34815;DHT22;21030;53.912;15.214;2022-07-04T02:59:15;40.30;31.10
34815;DHT22;21030;53.912;15.214;2022-07-04T03:01:42;40.50;31.10
34815;DHT22;21030;53.912;15.214;2022-07-04T03:04:09;40.50;31.10
34815;DHT22;21030;53.912;15.214;2022-07-04T03:06:39;40.50;30.70
34815;DHT22;21030;53.912;15.214;2022-07-04T03:09:07;39.80;30.00
34815;DHT22;21030;53.912;15.214;2022-07-04T03:11:34;39.50;31.50
34815;DHT22;21030;53.912;15.214;2022-07-04T03:14:01;39.70;31.20
34815;DHT22;21030;53.912;15.214;2022-07-04T03:16:28;39.80;31.10
34815;DHT22;21030;53.912;15.214;2022-07-04T03:18:55;40.10;31.00
34815;DHT22;21030;53.912;15.214;2022-07-04T03:21:22;40.20;30.50
34815;DHT22;21030;53.912;15.214;2022-07-04T03:23:54;40.10;30.40
34815;DHT22;21030;53.912;15.214;2022-07-04T03:26:30;40.30;30.30
34815;DHT22;21030;53.912;15.214;2022-07-04T03:28:59;40.20;30.30
34815;DHT22;21030;53.912;15.214;2022-07-04T03:31:29;40.30;30.20
34815;DHT22;21030;53.912;15.214;2022-07-04T03:33:57;40.10;30.20
34815;DHT22;21030;53.912;15.214;2022-07-04T03:36:24;39.90;30.50
34815;DHT22;21030;53.912;15.214;2022-07-04T03:38:53;40.10;30.60
34815;DHT22;21030;53.912;15.214;2022-07-04T03:41:20;40.10;30.20
34815;DHT22;21030;53.912;15.214;2022-07-04T03:43:48;39.90;30.30
34815;DHT22;21030;53.912;15.214;2022-07-04T03:46:17;40.00;30.50
34815;DHT22;21030;53.912;15.214;2022-07-04T03:48:47;40.20;30.60
34815;DHT22;21030;53.912;15.214;2022-07-04T03:51:20;40.10;30.70
34815;DHT22;21030;53.912;15.214;2022-07-04T03:53:53;40.20;30.50
34815;DHT22;21030;53.912;15.214;2022-07-04T03:56:20;40.30;30.80
34815;DHT22;21030;53.912;15.214;2022-07-04T03:58:47;40.10;31.00
34815;DHT22;21030;53.912;15.214;2022-07-04T04:01:17;40.20;30.60
34815;DHT22;21030;53.912;15.214;2022-07-04T04:03:45;40.00;30.80
34815;DHT22;21030;53.912;15.214;2022-07-04T04:06:31;40.30;30.80
34815;DHT22;21030;53.912;15.214;2022-07-04T04:08:58;40.30;30.80
34815;DHT22;21030;53.912;15.214;2022-07-04T04:11:25;40.40;31.20
34815;DHT22;21030;53.912;15.214;2022-07-04T04:13:52;40.50;31.30
34815;DHT22;21030;53.912;15.214;2022-07-04T04:16:19;40.50;31.20
34815;DHT22;21030;53.912;15.214;2022-07-04T04:18:47;40.50;31.00
34815;DHT22;21030;53.912;15.214;2022-07-04T04:21:14;40.60;30.60
34815;DHT22;21030;53.912;15.214;2022-07-04T04:23:41;40.70;30.70
34815;DHT22;21030;53.912;15.214;2022-07-04T04:26:08;40.80;31.30
34815;DHT22;21030;53.912;15.214;2022-07-04T04:28:35;41.10;30.20
34815;DHT22;21030;53.912;15.214;2022-07-04T04:31:04;41.20;29.80
34815;DHT22;21030;53.912;15.214;2022-07-04T04:33:31;40.90;29.80
34815;DHT22;21030;53.912;15.214;2022-07-04T04:35:58;40.90;30.00
34815;DHT22;21030;53.912;15.214;2022-07-04T04:38:25;40.80;30.00
34815;DHT22;21030;53.912;15.214;2022-07-04T04:40:53;40.40;30.30
34815;DHT22;21030;53.912;15.214;2022-07-04T04:43:20;40.20;30.50
34815;DHT22;21030;53.912;15.214;2022-07-04T04:45:47;40.30;31.10
34815;DHT22;21030;53.912;15.214;2022-07-04T04:48:16;39.60;31.10
34815;DHT22;21030;53.912;15.214;2022-07-04T04:50:43;39.10;31.80
34815;DHT22;21030;53.912;15.214;2022-07-04T04:53:12;40.10;31.60
34815;DHT22;21030;53.912;15.214;2022-07-04T04:55:40;40.30;31.10
34815;DHT22;21030;53.912;15.214;2022-07-04T04:58:07;40.00;31.00
34815;DHT22;21030;53.912;15.214;2022-07-04T05:00:35;39.70;31.60
34815;DHT22;21030;53.912;15.214;2022-07-04T05:03:02;39.90;32.00
34815;DHT22;21030;53.912;15.214;2022-07-04T05:05:29;40.50;31.30
34815;DHT22;21030;53.912;15.214;2022-07-04T05:07:56;41.00;30.30
34815;DHT22;21030;53.912;15.214;2022-07-04T05:10:23;41.10;30.20
34815;DHT22;21030;53.912;15.214;2022-07-04T05:12:50;41.40;30.10
34815;DHT22;21030;53.912;15.214;2022-07-04T05:15:17;41.50;30.20
34815;DHT22;21030;53.912;15.214;2022-07-04T05:17:44;41.00;29.70
34815;DHT22;21030;53.912;15.214;2022-07-04T05:20:12;41.10;30.20
34815;DHT22;21030;53.912;15.214;2022-07-04T05:22:39;41.10;30.10
34815;DHT22;21030;53.912;15.214;2022-07-04T05:25:06;40.80;30.30
34815;DHT22;21030;53.912;15.214;2022-07-04T05:27:34;41.20;29.90
34815;DHT22;21030;53.912;15.214;2022-07-04T05:30:01;41.50;29.20
34815;DHT22;21030;53.912;15.214;2022-07-04T05:32:28;41.80;29.40
34815;DHT22;21030;53.912;15.214;2022-07-04T05:34:55;41.80;29.10
34815;DHT22;21030;53.912;15.214;2022-07-04T05:37:23;41.30;29.70
34815;DHT22;21030;53.912;15.214;2022-07-04T05:39:50;41.70;29.40
34815;DHT22;21030;53.912;15.214;2022-07-04T05:42:17;41.90;29.60
34815;DHT22;21030;53.912;15.214;2022-07-04T05:44:44;41.10;29.60
34815;DHT22;21030;53.912;15.214;2022-07-04T05:47:12;40.80;30.10
34815;DHT22;21030;53.912;15.214;2022-07-04T05:49:39;40.50;30.80
34815;DHT22;21030;53.912;15.214;2022-07-04T05:52:07;40.00;30.60
34815;DHT22;21030;53.912;15.214;2022-07-04T05:54:34;39.90;31.40
34815;DHT22;21030;53.912;15.214;2022-07-04T05:57:01;39.90;31.70
34815;DHT22;21030;53.912;15.214;2022-07-04T05:59:28;40.10;31.60
34815;DHT22;21030;53.912;15.214;2022-07-04T06:01:56;39.90;31.10
34815;DHT22;21030;53.912;15.214;2022-07-04T06:04:23;39.70;31.20
34815;DHT22;21030;53.912;15.214;2022-07-04T06:06:51;39.90;31.40
34815;DHT22;21030;53.912;15.214;2022-07-04T06:09:18;39.80;31.50
34815;DHT22;21030;53.912;15.214;2022-07-04T06:11:45;39.90;31.00
34815;DHT22;21030;53.912;15.214;2022-07-04T06:14:12;39.60;31.20
34815;DHT22;21030;53.912;15.214;2022-07-04T06:16:39;39.90;31.40
34815;DHT22;21030;53.912;15.214;2022-07-04T06:19:07;40.70;31.20
34815;DHT22;21030;53.912;15.214;2022-07-04T06:21:34;40.70;30.70
34815;DHT22;21030;53.912;15.214;2022-07-04T06:24:01;40.90;30.00
34815;DHT22;21030;53.912;15.214;2022-07-04T06:26:29;40.50;29.80
34815;DHT22;21030;53.912;15.214;2022-07-04T06:28:57;40.70;30.00
34815;DHT22;21030;53.912;15.214;2022-07-04T06:31:24;41.00;30.00
34815;DHT22;21030;53.912;15.214;2022-07-04T06:33:51;40.70;30.00
34815;DHT22;21030;53.912;15.214;2022-07-04T06:36:37;40.80;30.00
34815;DHT22;21030;53.912;15.214;2022-07-04T06:39:04;41.20;29.80
34815;DHT22;21030;53.912;15.214;2022-07-04T06:41:31;41.40;29.70
34815;DHT22;21030;53.912;15.214;2022-07-04T06:43:58;42.00;29.70
34815;DHT22;21030;53.912;15.214;2022-07-04T06:46:25;43.10;29.00
34815;DHT22;21030;53.912;15.214;2022-07-04T06:48:52;43.90;27.70
34815;DHT22;21030;53.912;15.214;2022-07-04T06:51:19;44.40;27.30
34815;DHT22;21030;53.912;15.214;2022-07-04T06:53:46;45.00;26.50
34815;DHT22;21030;53.912;15.214;2022-07-04T06:56:13;44.00;26.60
34815;DHT22;21030;53.912;15.214;2022-07-04T06:58:40;43.30;26.70
34815;DHT22;21030;53.912;15.214;2022-07-04T07:01:07;43.40;27.00
34815;DHT22;21030;53.912;15.214;2022-07-04T07:03:35;42.60;26.80
34815;DHT22;21030;53.912;15.214;2022-07-04T07:06:02;42.30;27.10
34815;DHT22;21030;53.912;15.214;2022-07-04T07:08:30;42.90;27.50
34815;DHT22;21030;53.912;15.214;2022-07-04T07:10:57;42.90;27.20
34815;DHT22;21030;53.912;15.214;2022-07-04T07:13:24;43.40;27.00
34815;DHT22;21030;53.912;15.214;2022-07-04T07:15:51;43.50;26.50
34815;DHT22;21030;53.912;15.214;2022-07-04T07:18:18;43.90;26.20
34815;DHT22;21030;53.912;15.214;2022-07-04T07:20:46;43.40;26.30
34815;DHT22;21030;53.912;15.214;2022-07-04T07:23:13;42.40;26.70
34815;DHT22;21030;53.912;15.214;2022-07-04T07:25:40;42.30;27.50
34815;DHT22;21030;53.912;15.214;2022-07-04T07:28:07;42.20;27.50
34815;DHT22;21030;53.912;15.214;2022-07-04T07:30:35;42.30;27.60
34815;DHT22;21030;53.912;15.214;2022-07-04T07:33:02;42.40;27.50
34815;DHT22;21030;53.912;15.214;2022-07-04T07:35:29;43.10;27.20
34815;DHT22;21030;53.912;15.214;2022-07-04T07:37:57;43.80;26.90
34815;DHT22;21030;53.912;15.214;2022-07-04T07:40:24;44.50;26.40
34815;DHT22;21030;53.912;15.214;2022-07-04T07:42:50;44.80;25.50
34815;DHT22;21030;53.912;15.214;2022-07-04T07:45:19;45.60;24.90
34815;DHT22;21030;53.912;15.214;2022-07-04T07:47:46;46.20;24.60
34815;DHT22;21030;53.912;15.214;2022-07-04T07:50:13;46.40;24.30
34815;DHT22;21030;53.912;15.214;2022-07-04T07:52:40;46.60;24.20
34815;DHT22;21030;53.912;15.214;2022-07-04T07:55:08;46.80;24.20
34815;DHT22;21030;53.912;15.214;2022-07-04T07:57:35;46.90;24.50
34815;DHT22;21030;53.912;15.214;2022-07-04T08:00:03;47.00;23.90
34815;DHT22;21030;53.912;15.214;2022-07-04T08:02:30;47.00;24.00
34815;DHT22;21030;53.912;15.214;2022-07-04T08:05:16;47.00;24.30
34815;DHT22;21030;53.912;15.214;2022-07-04T08:07:43;46.80;24.20
34815;DHT22;21030;53.912;15.214;2022-07-04T08:10:10;46.10;23.80
34815;DHT22;21030;53.912;15.214;2022-07-04T08:12:37;45.60;24.30
34815;DHT22;21030;53.912;15.214;2022-07-04T08:15:05;45.80;24.50
34815;DHT22;21030;53.912;15.214;2022-07-04T08:17:34;46.40;24.70
34815;DHT22;21030;53.912;15.214;2022-07-04T08:20:05;46.60;23.80
34815;DHT22;21030;53.912;15.214;2022-07-04T08:22:33;47.20;23.50
34815;DHT22;21030;53.912;15.214;2022-07-04T08:25:00;47.30;23.40
34815;DHT22;21030;53.912;15.214;2022-07-04T08:27:27;46.70;23.40
34815;DHT22;21030;53.912;15.214;2022-07-04T08:29:59;46.50;23.40
34815;DHT22;21030;53.912;15.214;2022-07-04T08:32:26;46.00;23.50
34815;DHT22;21030;53.912;15.214;2022-07-04T08:34:53;45.80;23.70
34815;DHT22;21030;53.912;15.214;2022-07-04T08:37:22;46.00;24.00
34815;DHT22;21030;53.912;15.214;2022-07-04T08:39:50;45.70;24.20
34815;DHT22;21030;53.912;15.214;2022-07-04T08:42:19;45.50;24.20
34815;DHT22;21030;53.912;15.214;2022-07-04T08:44:49;45.70;24.30
34815;DHT22;21030;53.912;15.214;2022-07-04T08:47:21;46.00;24.40
34815;DHT22;21030;53.912;15.214;2022-07-04T08:50:00;45.40;24.10
34815;DHT22;21030;53.912;15.214;2022-07-04T08:52:37;46.00;24.50
34815;DHT22;21030;53.912;15.214;2022-07-04T08:55:11;46.60;23.70
34815;DHT22;21030;53.912;15.214;2022-07-04T08:57:58;47.20;23.10
34815;DHT22;21030;53.912;15.214;2022-07-04T09:00:44;47.30;22.80
34815;DHT22;21030;53.912;15.214;2022-07-04T09:03:11;47.50;22.80
34815;DHT22;21030;53.912;15.214;2022-07-04T09:05:39;47.20;22.80
34815;DHT22;21030;53.912;15.214;2022-07-04T09:08:06;47.30;22.80
34815;DHT22;21030;53.912;15.214;2022-07-04T09:10:33;47.50;22.50
34815;DHT22;21030;53.912;15.214;2022-07-04T09:13:02;47.60;22.40
34815;DHT22;21030;53.912;15.214;2022-07-04T09:15:40;47.80;22.60
34815;DHT22;21030;53.912;15.214;2022-07-04T09:18:19;47.90;22.80
34815;DHT22;21030;53.912;15.214;2022-07-04T09:20:47;47.70;22.30
34815;DHT22;21030;53.912;15.214;2022-07-04T09:23:28;47.80;22.60
34815;DHT22;21030;53.912;15.214;2022-07-04T09:28:43;48.60;21.60
34815;DHT22;21030;53.912;15.214;2022-07-04T09:33:51;47.10;22.00
34815;DHT22;21030;53.912;15.214;2022-07-04T09:36:25;46.70;22.30
34815;DHT22;21030;53.912;15.214;2022-07-04T09:41:55;46.40;22.70
34815;DHT22;21030;53.912;15.214;2022-07-04T09:44:26;47.20;22.00
34815;DHT22;21030;53.912;15.214;2022-07-04T09:46:53;47.90;21.70
34815;DHT22;21030;53.912;15.214;2022-07-04T09:49:20;47.00;21.70
34815;DHT22;21030;53.912;15.214;2022-07-04T09:51:50;46.60;22.20
34815;DHT22;21030;53.912;15.214;2022-07-04T09:54:21;46.10;22.50
34815;DHT22;21030;53.912;15.214;2022-07-04T09:56:51;45.80;22.80
34815;DHT22;21030;53.912;15.214;2022-07-04T09:59:19;46.70;22.60
34815;DHT22;21030;53.912;15.214;2022-07-04T10:01:46;47.50;22.00
34815;DHT22;21030;53.912;15.214;2022-07-04T10:04:14;48.30;21.40
34815;DHT22;21030;53.912;15.214;2022-07-04T10:06:43;47.90;20.50
34815;DHT22;21030;53.912;15.214;2022-07-04T10:09:15;47.40;20.90
34815;DHT22;21030;53.912;15.214;2022-07-04T10:11:44;47.00;21.20
34815;DHT22;21030;53.912;15.214;2022-07-04T10:14:13;47.70;21.10
34815;DHT22;21030;53.912;15.214;2022-07-04T10:16:41;47.80;20.40
34815;DHT22;21030;53.912;15.214;2022-07-04T10:19:09;47.60;20.60
34815;DHT22;21030;53.912;15.214;2022-07-04T10:21:36;47.70;20.80
34815;DHT22;21030;53.912;15.214;2022-07-04T10:24:04;47.70;20.60
34815;DHT22;21030;53.912;15.214;2022-07-04T10:26:31;48.40;20.20
34815;DHT22;21030;53.912;15.214;2022-07-04T10:28:58;47.90;20.10
34815;DHT22;21030;53.912;15.214;2022-07-04T10:31:29;48.20;20.70
34815;DHT22;21030;53.912;15.214;2022-07-04T10:34:00;47.50;20.30
34815;DHT22;21030;53.912;15.214;2022-07-04T10:36:36;47.70;20.60
34815;DHT22;21030;53.912;15.214;2022-07-04T10:39:04;48.00;20.50
34815;DHT22;21030;53.912;15.214;2022-07-04T10:41:31;47.70;20.10
34815;DHT22;21030;53.912;15.214;2022-07-04T10:44:03;47.70;20.40
34815;DHT22;21030;53.912;15.214;2022-07-04T10:46:47;46.60;20.40
34815;DHT22;21030;53.912;15.214;2022-07-04T10:51:53;46.40;21.10
34815;DHT22;21030;53.912;15.214;2022-07-04T10:54:32;47.00;20.40
34815;DHT22;21030;53.912;15.214;2022-07-04T10:57:15;47.20;20.40
34815;DHT22;21030;53.912;15.214;2022-07-04T11:02:24;47.20;20.70
34815;DHT22;21030;53.912;15.214;2022-07-04T11:05:01;47.80;20.60
34815;DHT22;21030;53.912;15.214;2022-07-04T11:18:08;49.40;19.30
34815;DHT22;21030;53.912;15.214;2022-07-04T11:20:36;48.70;19.40
34815;DHT22;21030;53.912;15.214;2022-07-04T11:23:12;48.40;20.00
34815;DHT22;21030;53.912;15.214;2022-07-04T11:25:41;48.00;19.90
34815;DHT22;21030;53.912;15.214;2022-07-04T11:31:07;48.30;20.50
34815;DHT22;21030;53.912;15.214;2022-07-04T11:33:34;49.00;19.60
34815;DHT22;21030;53.912;15.214;2022-07-04T11:36:05;48.80;18.70
34815;DHT22;21030;53.912;15.214;2022-07-04T11:38:51;47.30;18.50
34815;DHT22;21030;53.912;15.214;2022-07-04T11:41:40;45.70;19.40
34815;DHT22;21030;53.912;15.214;2022-07-04T11:44:27;45.70;20.50
34815;DHT22;21030;53.912;15.214;2022-07-04T11:49:50;46.20;21.20
34815;DHT22;21030;53.912;15.214;2022-07-04T11:52:22;46.90;21.20
34815;DHT22;21030;53.912;15.214;2022-07-04T11:55:11;47.50;20.80
34815;DHT22;21030;53.912;15.214;2022-07-04T11:57:44;48.40;19.90
34815;DHT22;21030;53.912;15.214;2022-07-04T12:00:14;48.80;19.50
34815;DHT22;21030;53.912;15.214;2022-07-04T12:02:44;49.60;19.40
34815;DHT22;21030;53.912;15.214;2022-07-04T12:05:12;49.40;18.90
34815;DHT22;21030;53.912;15.214;2022-07-04T12:07:42;49.40;18.80
34815;DHT22;21030;53.912;15.214;2022-07-04T12:10:28;49.80;19.00
34815;DHT22;21030;53.912;15.214;2022-07-04T12:13:00;49.80;19.50
34815;DHT22;21030;53.912;15.214;2022-07-04T12:15:44;50.30;19.20
34815;DHT22;21030;53.912;15.214;2022-07-04T12:18:27;50.20;18.60
34815;DHT22;21030;53.912;15.214;2022-07-04T12:21:20;50.00;18.60
34815;DHT22;21030;53.912;15.214;2022-07-04T12:23:54;49.60;18.60
34815;DHT22;21030;53.912;15.214;2022-07-04T12:26:47;49.10;19.00
34815;DHT22;21030;53.912;15.214;2022-07-04T12:29:24;49.10;19.10
34815;DHT22;21030;53.912;15.214;2022-07-04T12:31:57;49.50;18.80
34815;DHT22;21030;53.912;15.214;2022-07-04T12:34:25;49.40;18.80
34815;DHT22;21030;53.912;15.214;2022-07-04T12:36:53;49.10;19.00
34815;DHT22;21030;53.912;15.214;2022-07-04T12:39:38;48.50;19.50
34815;DHT22;21030;53.912;15.214;2022-07-04T12:42:10;47.70;19.90
34815;DHT22;21030;53.912;15.214;2022-07-04T12:44:39;47.70;20.30
34815;DHT22;21030;53.912;15.214;2022-07-04T12:47:07;47.40;20.20
34815;DHT22;21030;53.912;15.214;2022-07-04T12:49:55;46.80;20.90
34815;DHT22;21030;53.912;15.214;2022-07-04T12:52:27;46.60;21.40
34815;DHT22;21030;53.912;15.214;2022-07-04T12:55:07;46.70;21.70
34815;DHT22;21030;53.912;15.214;2022-07-04T12:57:37;47.20;21.40
34815;DHT22;21030;53.912;15.214;2022-07-04T13:00:04;47.00;21.00
34815;DHT22;21030;53.912;15.214;2022-07-04T13:02:52;47.20;21.00
34815;DHT22;21030;53.912;15.214;2022-07-04T13:05:19;47.90;20.60
34815;DHT22;21030;53.912;15.214;2022-07-04T13:07:49;48.40;20.50
34815;DHT22;21030;53.912;15.214;2022-07-04T13:10:16;48.80;20.30
34815;DHT22;21030;53.912;15.214;2022-07-04T13:12:43;49.10;20.00
34815;DHT22;21030;53.912;15.214;2022-07-04T13:15:10;48.80;20.00
34815;DHT22;21030;53.912;15.214;2022-07-04T13:17:40;48.30;20.00
34815;DHT22;21030;53.912;15.214;2022-07-04T13:20:08;48.20;20.40
34815;DHT22;21030;53.912;15.214;2022-07-04T13:22:36;47.90;20.60
34815;DHT22;21030;53.912;15.214;2022-07-04T13:25:06;46.80;20.60
34815;DHT22;21030;53.912;15.214;2022-07-04T13:27:34;46.20;21.10
34815;DHT22;21030;53.912;15.214;2022-07-04T13:30:01;45.90;21.10
34815;DHT22;21030;53.912;15.214;2022-07-04T13:32:29;44.90;21.80
34815;DHT22;21030;53.912;15.214;2022-07-04T13:34:56;44.90;22.10
34815;DHT22;21030;53.912;15.214;2022-07-04T13:37:23;45.30;22.10
34815;DHT22;21030;53.912;15.214;2022-07-04T13:39:50;45.20;21.60
34815;DHT22;21030;53.912;15.214;2022-07-04T13:42:19;44.80;21.10
34815;DHT22;21030;53.912;15.214;2022-07-04T13:45:05;45.00;21.80
34815;DHT22;21030;53.912;15.214;2022-07-04T13:47:32;46.10;21.60
34815;DHT22;21030;53.912;15.214;2022-07-04T13:49:59;46.60;21.40
34815;DHT22;21030;53.912;15.214;2022-07-04T13:52:26;47.00;20.70
34815;DHT22;21030;53.912;15.214;2022-07-04T13:54:54;47.10;20.60
34815;DHT22;21030;53.912;15.214;2022-07-04T13:57:21;47.40;20.60
34815;DHT22;21030;53.912;15.214;2022-07-04T13:59:48;47.70;20.50
34815;DHT22;21030;53.912;15.214;2022-07-04T14:02:15;47.90;20.70
34815;DHT22;21030;53.912;15.214;2022-07-04T14:04:42;48.50;20.00
34815;DHT22;21030;53.912;15.214;2022-07-04T14:07:09;48.60;19.90
34815;DHT22;21030;53.912;15.214;2022-07-04T14:09:44;48.80;19.90
34815;DHT22;21030;53.912;15.214;2022-07-04T14:12:11;49.20;19.70
34815;DHT22;21030;53.912;15.214;2022-07-04T14:14:43;49.10;19.30
34815;DHT22;21030;53.912;15.214;2022-07-04T14:17:13;48.80;19.50
34815;DHT22;21030;53.912;15.214;2022-07-04T14:20:00;48.70;19.90
34815;DHT22;21030;53.912;15.214;2022-07-04T14:22:27;48.50;19.60
34815;DHT22;21030;53.912;15.214;2022-07-04T14:24:54;48.40;19.60
34815;DHT22;21030;53.912;15.214;2022-07-04T14:27:21;47.80;20.00
34815;DHT22;21030;53.912;15.214;2022-07-04T14:29:48;47.90;19.90
34815;DHT22;21030;53.912;15.214;2022-07-04T14:32:16;47.50;19.80
34815;DHT22;21030;53.912;15.214;2022-07-04T14:34:43;47.80;20.30
34815;DHT22;21030;53.912;15.214;2022-07-04T14:37:10;47.90;20.10
34815;DHT22;21030;53.912;15.214;2022-07-04T14:39:37;47.70;19.60
34815;DHT22;21030;53.912;15.214;2022-07-04T14:42:05;47.90;20.10
34815;DHT22;21030;53.912;15.214;2022-07-04T14:44:32;47.20;20.50
34815;DHT22;21030;53.912;15.214;2022-07-04T14:47:05;47.40;20.30
34815;DHT22;21030;53.912;15.214;2022-07-04T14:49:37;47.30;19.70
34815;DHT22;21030;53.912;15.214;2022-07-04T14:52:04;47.20;19.90
34815;DHT22;21030;53.912;15.214;2022-07-04T14:54:32;47.40;19.90
34815;DHT22;21030;53.912;15.214;2022-07-04T14:56:59;47.40;19.90
34815;DHT22;21030;53.912;15.214;2022-07-04T14:59:26;47.70;20.10
34815;DHT22;21030;53.912;15.214;2022-07-04T15:01:53;47.90;19.80
34815;DHT22;21030;53.912;15.214;2022-07-04T15:04:20;47.30;19.90
34815;DHT22;21030;53.912;15.214;2022-07-04T15:06:47;47.10;20.10
34815;DHT22;21030;53.912;15.214;2022-07-04T15:09:14;46.80;20.10
34815;DHT22;21030;53.912;15.214;2022-07-04T15:11:41;47.00;20.30
34815;DHT22;21030;53.912;15.214;2022-07-04T15:14:08;46.40;20.90
34815;DHT22;21030;53.912;15.214;2022-07-04T15:16:35;46.30;20.60
34815;DHT22;21030;53.912;15.214;2022-07-04T15:19:02;46.20;20.90
34815;DHT22;21030;53.912;15.214;2022-07-04T15:21:30;46.20;20.90
34815;DHT22;21030;53.912;15.214;2022-07-04T15:24:16;45.20;21.20
34815;DHT22;21030;53.912;15.214;2022-07-04T15:26:48;44.30;21.20
34815;DHT22;21030;53.912;15.214;2022-07-04T15:29:18;44.40;21.70
34815;DHT22;21030;53.912;15.214;2022-07-04T15:31:46;44.60;21.70
34815;DHT22;21030;53.912;15.214;2022-07-04T15:34:13;44.60;21.70
34815;DHT22;21030;53.912;15.214;2022-07-04T15:36:41;44.90;21.90
34815;DHT22;21030;53.912;15.214;2022-07-04T15:39:11;45.00;21.90
34815;DHT22;21030;53.912;15.214;2022-07-04T15:41:39;44.70;21.80
34815;DHT22;21030;53.912;15.214;2022-07-04T15:44:06;44.50;21.80
34815;DHT22;21030;53.912;15.214;2022-07-04T15:46:35;44.40;22.00
34815;DHT22;21030;53.912;15.214;2022-07-04T15:49:03;44.70;21.90
34815;DHT22;21030;53.912;15.214;2022-07-04T15:51:44;44.40;21.80
34815;DHT22;21030;53.912;15.214;2022-07-04T15:54:12;44.40;22.10
34815;DHT22;21030;53.912;15.214;2022-07-04T15:56:39;44.50;22.00
34815;DHT22;21030;53.912;15.214;2022-07-04T15:59:06;44.50;21.80